Time;durP1;ratioP1;P1;durP2;ratioP2;P2;SDS_P1;SDS_P2;PMS_P1;PMS_P2;Temp;Humidity;BMP_temperature;BMP_pressure;BME280_temperature;BME280_humidity;BME280_pressure;Samples;Min_cycle;Max_cycle;Signal;HPM_P1;HPM_P2
2024/04/13 00:00:11;;;;;;;1.37;1.00;;;;;;;8.93;71.63;101279.84;5419957;26;20224;-69
2024/04/13 00:02:40;;;;;;;1.77;1.00;;;;;;;8.93;71.64;101284.22;5420212;26;20288;-69
2024/04/13 00:05:10;;;;;;;1.17;1.07;;;;;;;8.91;71.77;101279.88;5419916;26;20297;-69
2024/04/13 00:07:36;;;;;;;1.57;1.00;;;;;;;8.91;71.78;101279.03;5419824;26;20220;-69
2024/04/13 00:10:05;;;;;;;1.73;1.00;;;;;;;8.91;71.67;101271.19;5419883;26;20336;-69
2024/04/13 00:12:31;;;;;;;1.30;0.90;;;;;;;8.88;71.69;101259.03;5419361;26;20578;-69
2024/04/13 00:15:03;;;;;;;1.17;1.07;;;;;;;8.89;71.83;101262.50;5419922;26;20289;-69
2024/04/13 00:17:31;;;;;;;1.60;0.90;;;;;;;8.87;71.99;101259.03;5419914;26;20270;-69
2024/04/13 00:20:00;;;;;;;2.10;0.97;;;;;;;8.84;72.12;101265.13;5419750;26;20231;-70
2024/04/13 00:22:26;;;;;;;1.57;1.10;;;;;;;8.84;72.20;101259.91;5419897;26;20275;-69
2024/04/13 00:24:54;;;;;;;1.83;0.90;;;;;;;8.83;72.07;101259.94;5419586;26;20319;-69
2024/04/13 00:27:23;;;;;;;1.40;1.00;;;;;;;8.82;72.25;101253.00;5419839;26;20346;-69
2024/04/13 00:29:52;;;;;;;2.87;1.17;;;;;;;8.81;72.36;101256.47;5419829;26;20342;-69
2024/04/13 00:32:20;;;;;;;0.80;0.80;;;;;;;8.82;72.45;101250.41;5419705;26;20224;-69
2024/04/13 00:34:50;;;;;;;1.97;0.90;;;;;;;8.80;72.42;101263.44;5419412;26;20812;-69
2024/04/13 00:37:16;;;;;;;1.57;0.90;;;;;;;8.80;72.41;101262.56;5419610;26;20258;-69
2024/04/13 00:39:44;;;;;;;0.70;0.70;;;;;;;8.79;72.46;101264.31;5419477;26;20227;-69
2024/04/13 00:42:10;;;;;;;1.33;0.90;;;;;;;8.78;72.56;101265.19;5415893;26;20336;-69
2024/04/13 00:44:42;;;;;;;0.73;0.73;;;;;;;8.78;72.54;101264.31;5419451;26;20232;-69
2024/04/13 00:47:09;;;;;;;1.97;0.83;;;;;;;8.78;72.62;101254.75;5419143;26;20221;-69
2024/04/13 00:49:41;;;;;;;1.17;0.90;;;;;;;8.78;72.44;101264.31;5419493;26;20227;-69
2024/04/13 00:52:11;;;;;;;1.27;0.97;;;;;;;8.78;72.54;101265.19;5419410;26;20351;-69
2024/04/13 00:54:41;;;;;;;2.07;0.80;;;;;;;8.78;72.71;101272.16;5414754;26;20309;-69
2024/04/13 00:57:09;;;;;;;1.60;0.97;;;;;;;8.78;72.55;101274.75;5419293;26;20328;-69
2024/04/13 00:59:40;;;;;;;1.77;0.80;;;;;;;8.77;72.66;101273.03;5419203;26;20234;-69
2024/04/13 01:02:10;;;;;;;1.00;0.87;;;;;;;8.78;72.74;101274.75;5417456;26;20292;-72
2024/04/13 01:04:42;;;;;;;1.50;0.93;;;;;;;8.69;72.79;101255.69;5416007;26;20231;-72
2024/04/13 01:07:09;;;;;;;1.83;0.87;;;;;;;8.75;72.86;101274.78;5419021;26;20328;-72
2024/04/13 01:09:38;;;;;;;1.53;1.20;;;;;;;8.71;73.08;101263.50;5418209;26;20227;-72
2024/04/13 01:12:09;;;;;;;0.80;0.80;;;;;;;8.68;72.88;101264.41;5419256;26;20220;-72
2024/04/13 01:14:38;;;;;;;0.97;0.80;;;;;;;8.71;72.67;101275.69;5418886;26;20219;-72
2024/04/13 01:17:04;;;;;;;0.83;0.83;;;;;;;8.74;72.83;101278.28;5418861;26;20222;-72
2024/04/13 01:19:34;;;;;;;1.60;0.80;;;;;;;8.74;73.16;101286.09;5418798;26;20271;-72
2024/04/13 01:22:04;;;;;;;1.23;0.90;;;;;;;8.69;72.88;101280.91;5419008;26;20271;-73
2024/04/13 01:24:35;;;;;;;0.80;0.80;;;;;;;8.74;72.99;101293.94;5418918;26;20228;-72
2024/04/13 01:27:02;;;;;;;2.83;1.00;;;;;;;8.69;73.07;101279.16;5418910;26;20266;-72
2024/04/13 01:29:31;;;;;;;1.37;0.90;;;;;;;8.72;72.99;101280.03;5418638;26;20227;-72
2024/04/13 01:31:57;;;;;;;0.87;0.87;;;;;;;8.73;73.03;101274.78;5413450;26;20321;-70
2024/04/13 01:34:25;;;;;;;1.07;0.97;;;;;;;8.72;73.03;101270.44;5418812;26;20235;-70
2024/04/13 01:36:51;;;;;;;1.93;1.00;;;;;;;8.74;73.09;101270.47;5418582;26;20231;-70
2024/04/13 01:39:20;;;;;;;1.17;1.07;;;;;;;8.68;73.12;101259.19;5418455;26;20239;-70
2024/04/13 01:41:52;;;;;;;2.57;1.00;;;;;;;8.71;73.24;101260.03;5418672;26;20607;-70
2024/04/13 01:44:21;;;;;;;1.50;0.80;;;;;;;8.72;73.10;101270.44;5416385;26;20333;-70
2024/04/13 01:46:46;;;;;;;1.67;0.90;;;;;;;8.73;73.20;101266.09;5415547;26;20299;-70
2024/04/13 01:49:15;;;;;;;1.77;1.20;;;;;;;8.74;73.10;101265.25;5418700;26;20222;-70
2024/04/13 01:51:41;;;;;;;1.03;0.80;;;;;;;8.74;73.18;101258.28;5418705;26;20664;-70
2024/04/13 01:54:09;;;;;;;2.80;1.27;;;;;;;8.72;73.10;101248.72;5418296;26;20227;-71
2024/04/13 01:56:36;;;;;;;0.83;0.70;;;;;;;8.72;72.87;101262.63;5418459;26;20275;-70
2024/04/13 01:59:07;;;;;;;2.27;1.10;;;;;;;8.73;73.01;101251.31;5418401;26;20729;-71
2024/04/13 02:01:34;;;;;;;0.87;0.83;;;;;;;8.73;73.15;101264.34;5418206;26;20267;-70
2024/04/13 02:04:02;;;;;;;0.80;0.80;;;;;;;8.74;73.39;101252.19;5418216;26;20224;-70
2024/04/13 02:06:28;;;;;;;1.37;1.03;;;;;;;8.73;73.15;101253.91;5418124;26;20345;-71
2024/04/13 02:08:57;;;;;;;1.07;0.70;;;;;;;8.73;73.17;101251.31;5418155;26;20227;-70
2024/04/13 02:11:22;;;;;;;3.87;0.90;;;;;;;8.73;73.13;101250.44;5418402;26;20335;-72
2024/04/13 02:13:51;;;;;;;1.33;0.70;;;;;;;8.72;73.23;101246.13;5418023;26;20228;-73
2024/04/13 02:16:19;;;;;;;1.73;0.80;;;;;;;8.72;73.17;101240.91;5418264;26;20259;-72
2024/04/13 02:18:48;;;;;;;1.17;1.07;;;;;;;8.75;73.03;101253.91;5417915;26;20231;-72
2024/04/13 02:21:16;;;;;;;1.43;0.97;;;;;;;8.75;73.14;101249.56;5415791;26;20275;-73
2024/04/13 02:23:44;;;;;;;1.00;1.00;;;;;;;8.74;73.09;101244.38;5418211;26;20228;-72
2024/04/13 02:26:11;;;;;;;1.13;0.97;;;;;;;8.75;73.07;101240.88;5417955;26;20250;-72
2024/04/13 02:28:39;;;;;;;0.77;0.77;;;;;;;8.75;73.21;101239.13;5418399;26;20270;-72
2024/04/13 02:31:05;;;;;;;1.50;0.80;;;;;;;8.74;73.11;101236.53;5415823;26;20279;-72
2024/04/13 02:33:36;;;;;;;1.17;0.70;;;;;;;8.72;73.18;101231.31;5418164;26;20227;-72
2024/04/13 02:36:04;;;;;;;2.40;1.10;;;;;;;8.75;73.21;101243.47;5417834;26;20714;-72
2024/04/13 02:38:32;;;;;;;1.37;0.90;;;;;;;8.74;73.39;101237.41;5417973;26;20224;-72
2024/04/13 02:41:00;;;;;;;2.10;0.90;;;;;;;8.75;73.47;101222.59;5417909;26;20295;-70
2024/04/13 02:43:30;;;;;;;1.97;0.90;;;;;;;8.73;73.32;101219.13;5417620;26;20222;-70
2024/04/13 02:45:57;;;;;;;0.70;0.70;;;;;;;8.74;73.29;101223.50;5416831;26;20253;-70
2024/04/13 02:48:27;;;;;;;1.10;1.00;;;;;;;8.75;73.36;101222.59;5417605;26;20216;-70
2024/04/13 02:50:55;;;;;;;1.60;0.87;;;;;;;8.64;73.14;101199.22;5413758;26;20227;-70
2024/04/13 02:53:24;;;;;;;1.23;1.10;;;;;;;8.74;73.28;101220.88;5417686;26;20234;-70
2024/04/13 02:55:50;;;;;;;0.67;0.67;;;;;;;8.73;73.37;101211.31;5410992;26;20258;-70
2024/04/13 02:58:19;;;;;;;1.60;0.60;;;;;;;8.75;73.26;101210.41;5417423;26;20278;-70
2024/04/13 03:00:51;;;;;;;1.97;0.90;;;;;;;8.74;73.28;101211.31;5417300;26;20268;-70
2024/04/13 03:03:19;;;;;;;0.93;0.83;;;;;;;8.74;73.14;101203.47;5411750;26;20230;-70
2024/04/13 03:05:46;;;;;;;1.40;0.80;;;;;;;8.76;73.08;101211.28;5417170;26;20310;-70
2024/04/13 03:08:17;;;;;;;1.60;0.90;;;;;;;8.73;73.27;101193.03;5417391;26;20261;-70
2024/04/13 03:10:53;;;;;;;2.47;0.97;;;;;;;8.75;73.24;101199.97;5417095;26;20288;-70
2024/04/13 03:13:21;;;;;;;2.07;1.00;;;;;;;8.71;73.26;101189.59;5413927;26;20226;-70
2024/04/13 03:15:57;;;;;;;1.13;0.80;;;;;;;8.75;73.46;101189.56;5417048;26;20329;-70
2024/04/13 03:18:26;;;;;;;1.17;1.07;;;;;;;8.75;73.14;101191.31;5413287;26;20220;-70
2024/04/13 03:20:52;;;;;;;2.10;1.00;;;;;;;8.71;73.24;101189.59;5417292;26;20324;-72
2024/04/13 03:23:23;;;;;;;1.03;0.93;;;;;;;8.74;73.28;101194.81;5416838;26;20232;-72
2024/04/13 03:25:49;;;;;;;1.77;0.70;;;;;;;8.74;73.17;101193.06;5417020;26;20230;-72
2024/04/13 03:28:18;;;;;;;1.20;1.10;;;;;;;8.73;73.25;101182.63;5416922;26;20703;-72
2024/04/13 03:30:44;;;;;;;1.27;1.10;;;;;;;8.73;73.26;101190.44;5417012;26;20215;-72
2024/04/13 03:33:13;;;;;;;1.00;0.90;;;;;;;8.75;73.34;101180.88;5416469;26;20227;-72
2024/04/13 03:35:39;;;;;;;0.93;0.90;;;;;;;8.75;73.24;101188.69;5412970;26;20219;-72
2024/04/13 03:38:07;;;;;;;2.37;1.20;;;;;;;8.75;73.28;101188.69;5416934;26;20766;-72
2024/04/13 03:40:38;;;;;;;1.67;0.90;;;;;;;8.64;73.31;101173.97;5416829;26;20229;-72
2024/04/13 03:43:08;;;;;;;1.10;0.90;;;;;;;8.73;73.37;101190.44;5416850;26;20323;-71
2024/04/13 03:45:34;;;;;;;1.23;0.90;;;;;;;8.74;73.35;101194.81;5415853;26;20228;-72
2024/04/13 03:48:03;;;;;;;0.90;0.80;;;;;;;8.73;73.40;101190.44;5416629;26;20761;-72
2024/04/13 03:50:28;;;;;;;1.43;0.90;;;;;;;8.72;73.75;101186.13;5417192;26;20271;-75
2024/04/13 03:52:57;;;;;;;1.00;0.90;;;;;;;8.74;73.44;101200.03;5416727;26;20733;-75
2024/04/13 03:55:23;;;;;;;1.50;0.80;;;;;;;8.73;73.45;101190.44;5416667;26;20221;-75
2024/04/13 03:57:54;;;;;;;1.37;0.80;;;;;;;8.75;73.20;101191.31;5416641;26;20219;-74
2024/04/13 04:00:20;;;;;;;1.43;0.90;;;;;;;8.74;73.37;101195.66;5412436;26;20276;-75
2024/04/13 04:02:49;;;;;;;1.23;1.03;;;;;;;8.76;73.55;101195.63;5416289;26;20228;-75
2024/04/13 04:05:15;;;;;;;0.70;0.70;;;;;;;8.76;73.26;101195.63;5416313;26;20216;-75
2024/04/13 04:07:43;;;;;;;1.77;0.70;;;;;;;8.74;73.24;101200.03;5416307;26;20639;-75
2024/04/13 04:10:11;;;;;;;0.80;0.60;;;;;;;8.77;73.39;101194.78;5416567;26;20329;-74
2024/04/13 04:12:40;;;;;;;0.90;0.80;;;;;;;8.76;73.44;101203.47;5414553;26;20619;-74
2024/04/13 04:15:09;;;;;;;0.80;0.80;;;;;;;8.77;73.41;101205.22;5409575;26;20357;-75
2024/04/13 04:17:37;;;;;;;0.80;0.80;;;;;;;8.77;73.32;101190.41;5416110;26;20224;-75
2024/04/13 04:20:04;;;;;;;1.10;0.70;;;;;;;8.77;73.31;101193.03;5416276;26;20283;-74
2024/04/13 04:22:32;;;;;;;1.30;0.90;;;;;;;8.79;73.26;101198.22;5415941;26;20224;-75
2024/04/13 04:24:58;;;;;;;2.03;0.90;;;;;;;8.80;73.20;101197.34;5416133;26;20317;-75
2024/04/13 04:27:27;;;;;;;1.33;0.80;;;;;;;8.80;73.55;101192.13;5415911;26;20587;-75
2024/04/13 04:29:53;;;;;;;0.77;0.77;;;;;;;8.81;73.42;101179.06;5416290;26;20259;-72
2024/04/13 04:32:24;;;;;;;0.50;0.50;;;;;;;8.82;73.42;101188.63;5416136;26;20602;-72
2024/04/13 04:34:51;;;;;;;0.77;0.70;;;;;;;8.82;73.49;101177.34;5416009;26;20245;-72
2024/04/13 04:37:20;;;;;;;0.60;0.60;;;;;;;8.83;73.26;101181.66;5415943;26;20228;-72
2024/04/13 04:39:46;;;;;;;1.13;0.60;;;;;;;8.83;73.41;101179.91;5415732;26;20223;-72
2024/04/13 04:42:15;;;;;;;0.50;0.50;;;;;;;8.85;73.41;101185.13;5415648;26;20223;-72
2024/04/13 04:44:41;;;;;;;0.80;0.80;;;;;;;8.85;73.46;101187.75;5417973;26;20689;-72
2024/04/13 04:47:11;;;;;;;0.60;0.60;;;;;;;8.85;73.45;101183.38;5419370;26;20267;-72
2024/04/13 04:49:40;;;;;;;0.70;0.70;;;;;;;8.77;73.44;101164.31;5419416;26;20756;-72
2024/04/13 04:52:08;;;;;;;1.37;0.73;;;;;;;8.88;73.50;101178.13;5419211;26;20228;-72
2024/04/13 04:54:35;;;;;;;0.80;0.70;;;;;;;8.90;73.44;101175.50;5416916;26;20224;-72
2024/04/13 04:57:03;;;;;;;2.83;0.87;;;;;;;8.90;73.38;101186.81;5419394;26;20278;-72
2024/04/13 04:59:29;;;;;;;0.67;0.67;;;;;;;8.90;73.25;101181.59;5419302;26;20716;-72
2024/04/13 05:01:58;;;;;;;0.80;0.60;;;;;;;8.91;73.33;101188.53;5419572;26;20231;-76
2024/04/13 05:04:24;;;;;;;0.93;0.70;;;;;;;8.93;73.30;101188.50;5419174;26;20270;-76
2024/04/13 05:06:55;;;;;;;0.60;0.60;;;;;;;8.95;73.47;101191.97;5418850;26;20322;-76
2024/04/13 05:09:21;;;;;;;0.70;0.70;;;;;;;8.89;73.31;101172.03;5419156;26;20280;-77
2024/04/13 05:11:50;;;;;;;0.80;0.80;;;;;;;8.97;73.53;101177.19;5419100;26;20231;-76
2024/04/13 05:14:18;;;;;;;1.00;0.73;;;;;;;8.98;73.58;101184.13;5419103;26;20231;-76
2024/04/13 05:16:47;;;;;;;1.07;0.80;;;;;;;9.02;73.55;101180.63;5418722;26;20273;-77
2024/04/13 05:19:13;;;;;;;0.80;0.80;;;;;;;9.03;73.31;101179.72;5418898;26;20317;-76
2024/04/13 05:21:42;;;;;;;0.47;0.47;;;;;;;9.04;73.59;101168.41;5418763;26;20712;-76
2024/04/13 05:24:13;;;;;;;0.70;0.70;;;;;;;8.96;73.42;101149.38;5417321;26;20258;-76
2024/04/13 05:26:39;;;;;;;1.23;0.90;;;;;;;9.06;73.47;101166.66;5418601;26;20279;-77
2024/04/13 05:29:07;;;;;;;0.60;0.60;;;;;;;9.11;73.47;101156.19;5418775;26;20665;-76
2024/04/13 05:31:33;;;;;;;1.17;0.60;;;;;;;9.12;73.49;101156.13;5418486;26;20369;-76
2024/04/13 05:34:02;;;;;;;0.77;0.60;;;;;;;9.06;73.47;101140.56;5418545;26;20236;-76
2024/04/13 05:36:28;;;;;;;1.77;0.60;;;;;;;9.16;73.54;101153.50;5418585;26;20272;-78
2024/04/13 05:38:56;;;;;;;1.57;0.60;;;;;;;9.13;73.42;101150.06;5418546;26;20301;-78
2024/04/13 05:41:25;;;;;;;0.60;0.60;;;;;;;9.23;73.38;101152.56;5415369;26;20304;-70
2024/04/13 05:43:53;;;;;;;0.70;0.70;;;;;;;9.24;73.62;101141.22;5418459;26;20223;-70
2024/04/13 05:46:19;;;;;;;2.63;0.97;;;;;;;9.26;73.25;101142.94;5417795;26;20347;-71
2024/04/13 05:48:48;;;;;;;0.67;0.67;;;;;;;9.29;73.33;101142.06;5418474;26;20235;-70
2024/04/13 05:51:14;;;;;;;1.10;1.00;;;;;;;9.22;73.32;101124.75;5418505;26;20575;-70
2024/04/13 05:53:42;;;;;;;1.47;1.00;;;;;;;9.34;73.37;101142.91;5418243;26;20267;-70
2024/04/13 05:56:09;;;;;;;0.83;0.80;;;;;;;9.35;73.53;101137.63;5417700;26;20809;-70
2024/04/13 05:58:41;;;;;;;1.13;0.80;;;;;;;9.40;73.65;101140.22;5419153;26;20330;-71
2024/04/13 06:01:07;;;;;;;1.87;0.80;;;;;;;9.42;73.45;101133.22;5418261;26;20324;-69
2024/04/13 06:03:36;;;;;;;1.00;0.90;;;;;;;9.46;73.47;101142.75;5418153;26;20581;-70
2024/04/13 06:06:02;;;;;;;1.63;1.00;;;;;;;9.48;73.50;101146.22;5418084;26;20795;-70
2024/04/13 06:08:30;;;;;;;2.30;0.93;;;;;;;9.51;73.60;101147.91;5417648;26;20287;-70
2024/04/13 06:10:56;;;;;;;1.07;0.70;;;;;;;9.53;73.73;101136.56;5418067;26;20237;-73
2024/04/13 06:13:24;;;;;;;1.83;0.80;;;;;;;9.57;73.61;101132.16;5417991;26;20565;-74
2024/04/13 06:15:53;;;;;;;1.13;0.93;;;;;;;9.59;73.64;101135.63;5417581;26;20382;-75
2024/04/13 06:18:22;;;;;;;1.30;0.90;;;;;;;9.62;73.42;101132.13;5417976;26;20221;-74
2024/04/13 06:20:48;;;;;;;1.33;1.00;;;;;;;9.66;73.13;101125.97;5418130;26;20217;-74
2024/04/13 06:23:17;;;;;;;1.37;0.90;;;;;;;9.68;73.36;101118.97;5417925;26;20225;-74
2024/04/13 06:25:45;;;;;;;0.80;0.80;;;;;;;9.61;73.54;101106.88;5415907;26;20567;-74
2024/04/13 06:28:14;;;;;;;0.80;0.80;;;;;;;9.75;73.33;101123.22;5414105;26;20225;-74
2024/04/13 06:30:42;;;;;;;3.33;1.40;;;;;;;9.77;73.01;101121.44;5418171;26;20332;-73
2024/04/13 06:33:13;;;;;;;1.00;0.83;;;;;;;9.79;73.27;101112.72;5417415;26;20217;-72
2024/04/13 06:35:39;;;;;;;1.57;1.10;;;;;;;9.82;73.26;101103.97;5417573;26;20638;-72
2024/04/13 06:38:08;;;;;;;1.47;0.87;;;;;;;9.86;72.91;101104.78;5417688;26;20225;-73
2024/04/13 06:40:35;;;;;;;1.10;0.80;;;;;;;9.87;73.14;101099.53;5417352;26;20371;-73
2024/04/13 06:43:03;;;;;;;2.17;0.70;;;;;;;9.90;73.13;101099.50;5417730;26;20270;-74
2024/04/13 06:45:29;;;;;;;1.30;0.90;;;;;;;9.93;73.37;101088.09;5417423;26;20320;-74
2024/04/13 06:47:58;;;;;;;0.70;0.63;;;;;;;9.95;73.43;101088.97;5417950;26;20229;-74
2024/04/13 06:50:26;;;;;;;4.60;0.93;;;;;;;9.97;72.97;101080.22;5416100;26;20284;-74
2024/04/13 06:52:55;;;;;;;0.70;0.70;;;;;;;10.01;72.91;101086.25;5417668;26;20292;-74
2024/04/13 06:55:21;;;;;;;0.77;0.70;;;;;;;10.03;72.74;101090.56;5417739;26;20346;-73
2024/04/13 06:57:50;;;;;;;0.77;0.53;;;;;;;10.04;72.97;101088.81;5417394;26;20331;-74
2024/04/13 07:00:16;;;;;;;1.70;0.77;;;;;;;10.09;72.75;101097.44;5417605;26;20263;-72
2024/04/13 07:02:47;;;;;;;2.23;0.50;;;;;;;10.11;72.78;101092.22;5417248;26;20216;-72
2024/04/13 07:05:13;;;;;;;0.77;0.60;;;;;;;10.15;72.79;101093.88;5417506;26;20280;-73
2024/04/13 07:07:44;;;;;;;0.60;0.60;;;;;;;10.14;72.99;101084.31;5412939;26;20303;-73
2024/04/13 07:10:10;;;;;;;2.37;0.70;;;;;;;10.18;72.44;101094.69;5413337;26;20288;-73
2024/04/13 07:12:39;;;;;;;1.70;0.73;;;;;;;10.23;72.51;101097.25;5417573;26;20710;-73
2024/04/13 07:15:06;;;;;;;0.70;0.50;;;;;;;10.19;72.12;101077.28;5417715;26;20810;-73
2024/04/13 07:17:34;;;;;;;0.80;0.60;;;;;;;10.29;72.24;101101.50;5417589;26;20299;-72
2024/04/13 07:20:04;;;;;;;0.53;0.50;;;;;;;10.30;71.69;101093.66;5417225;26;20221;-74
2024/04/13 07:22:33;;;;;;;0.43;0.40;;;;;;;10.33;72.15;101087.50;5416731;26;20737;-74
2024/04/13 07:25:02;;;;;;;0.43;0.40;;;;;;;10.32;71.86;101091.00;5417318;26;20280;-74
2024/04/13 07:27:30;;;;;;;0.77;0.67;;;;;;;10.37;71.64;101097.03;5417727;26;20261;-74
2024/04/13 07:29:56;;;;;;;0.63;0.63;;;;;;;10.37;71.38;101100.50;5417588;26;20229;-73
2024/04/13 07:32:24;;;;;;;0.70;0.50;;;;;;;10.39;71.63;101093.50;5415147;26;20276;-73
2024/04/13 07:34:50;;;;;;;0.90;0.60;;;;;;;10.41;71.13;101089.09;5412573;26;20329;-73
2024/04/13 07:37:19;;;;;;;2.07;0.80;;;;;;;10.40;71.54;101084.75;5417126;26;20225;-73
2024/04/13 07:39:45;;;;;;;0.70;0.60;;;;;;;10.42;71.35;101085.59;5417019;26;20217;-74
2024/04/13 07:42:16;;;;;;;0.67;0.50;;;;;;;10.45;71.16;101082.91;5417146;26;20255;-75
2024/04/13 07:44:42;;;;;;;1.43;0.70;;;;;;;10.46;70.75;101074.16;5415810;26;20688;-74
2024/04/13 07:47:10;;;;;;;2.73;0.73;;;;;;;10.48;71.18;101074.16;5417025;26;20236;-74
2024/04/13 07:49:36;;;;;;;2.07;0.57;;;;;;;10.49;70.75;101061.03;5417071;26;20321;-74
2024/04/13 07:52:05;;;;;;;1.20;0.70;;;;;;;10.49;70.75;101047.97;5416883;26;20313;-74
2024/04/13 07:54:31;;;;;;;0.80;0.70;;;;;;;10.51;70.65;101050.56;5416703;26;20809;-74
2024/04/13 07:57:00;;;;;;;1.63;0.80;;;;;;;10.52;70.17;101056.66;5416684;26;20224;-74
2024/04/13 07:59:28;;;;;;;2.20;0.67;;;;;;;10.53;70.26;101048.78;5416758;26;20285;-74
2024/04/13 08:01:57;;;;;;;1.50;0.70;;;;;;;10.54;70.61;101057.50;5416459;26;20658;-74
2024/04/13 08:04:23;;;;;;;1.00;0.63;;;;;;;10.56;69.97;101068.81;5416288;26;20263;-74
2024/04/13 08:06:51;;;;;;;0.90;0.80;;;;;;;10.56;70.00;101059.19;5416600;26;20554;-75
2024/04/13 08:09:17;;;;;;;0.83;0.60;;;;;;;10.58;70.33;101054.78;5416534;26;20281;-74
2024/04/13 08:11:46;;;;;;;2.73;0.60;;;;;;;10.60;70.09;101060.00;5416347;26;20217;-71
2024/04/13 08:14:11;;;;;;;1.00;0.63;;;;;;;10.61;70.41;101059.97;5416263;26;20363;-71
2024/04/13 08:16:43;;;;;;;2.60;0.80;;;;;;;10.62;70.00;101056.47;5416325;26;20228;-71
2024/04/13 08:19:09;;;;;;;0.80;0.60;;;;;;;10.63;70.44;101054.69;5414491;26;20330;-72
2024/04/13 08:21:38;;;;;;;0.93;0.60;;;;;;;10.66;70.19;101045.03;5419949;26;20871;-71
2024/04/13 08:24:05;;;;;;;1.20;0.93;;;;;;;10.65;69.80;101038.09;5419864;26;20288;-71
2024/04/13 08:26:33;;;;;;;3.97;0.90;;;;;;;10.69;69.58;101033.66;5420321;26;20270;-71
2024/04/13 08:28:59;;;;;;;1.43;0.60;;;;;;;10.69;70.08;101038.88;5419804;26;20733;-71
2024/04/13 08:31:27;;;;;;;0.63;0.63;;;;;;;10.73;69.64;101035.34;5419906;26;20305;-80
2024/04/13 08:33:56;;;;;;;2.30;1.10;;;;;;;10.75;69.78;101035.28;5419808;26;20240;-79
2024/04/13 08:36:25;;;;;;;0.60;0.60;;;;;;;10.76;69.52;101044.88;5419753;26;20222;-79
2024/04/13 08:38:51;;;;;;;0.93;0.70;;;;;;;10.75;69.28;101038.75;5419853;26;20502;-80
2024/04/13 08:41:28;;;;;;;1.43;0.70;;;;;;;10.78;69.41;101043.97;5419762;26;20311;-79
2024/04/13 08:43:54;;;;;;;1.27;0.80;;;;;;;10.80;69.75;101036.94;5419986;26;20225;-79
2024/04/13 08:46:24;;;;;;;1.47;0.70;;;;;;;10.82;69.21;101037.78;5419434;26;20308;-79
2024/04/13 08:48:50;;;;;;;0.70;0.70;;;;;;;10.84;69.60;101032.47;5419222;26;20228;-78
2024/04/13 08:51:22;;;;;;;1.60;0.90;;;;;;;10.81;69.30;101014.22;5419728;26;20255;-78
2024/04/13 08:53:49;;;;;;;1.17;0.77;;;;;;;10.89;69.56;101036.78;5416825;26;20800;-79
2024/04/13 08:56:19;;;;;;;1.13;0.70;;;;;;;10.91;69.73;101024.53;5419500;26;20225;-83
2024/04/13 08:58:49;;;;;;;1.53;0.90;;;;;;;10.93;69.62;101020.13;5419444;26;20221;-79
2024/04/13 09:01:24;;;;;;;1.27;1.10;;;;;;;10.95;69.38;101014.84;5419428;26;20237;-80
2024/04/13 09:03:50;;;;;;;1.10;0.70;;;;;;;11.00;69.22;101017.38;5419746;26;20746;-81
2024/04/13 09:06:22;;;;;;;1.37;1.10;;;;;;;11.02;69.64;101000.75;5418823;26;20334;-80
2024/04/13 09:08:49;;;;;;;0.87;0.77;;;;;;;11.06;69.26;101006.78;5419319;26;20224;-80
2024/04/13 09:11:22;;;;;;;0.90;0.80;;;;;;;10.97;69.66;100972.94;5419312;26;20221;-80
2024/04/13 09:13:49;;;;;;;2.07;0.80;;;;;;;11.10;70.01;100984.88;5419296;26;20350;-80
2024/04/13 09:16:19;;;;;;;1.43;0.90;;;;;;;11.18;69.66;101005.66;5419258;26;20217;-80
2024/04/13 09:18:45;;;;;;;2.20;1.00;;;;;;;11.21;69.57;100988.13;5417487;26;20334;-80
2024/04/13 09:21:15;;;;;;;0.90;0.73;;;;;;;11.27;69.23;100984.53;5418958;26;20236;-72
2024/04/13 09:23:45;;;;;;;4.43;1.10;;;;;;;11.32;69.78;100974.78;5419004;26;20225;-72
2024/04/13 09:26:13;;;;;;;1.90;0.87;;;;;;;11.36;69.37;100974.69;5412694;26;20225;-73
2024/04/13 09:28:40;;;;;;;1.07;0.87;;;;;;;11.43;69.73;100964.06;5418957;26;20381;-72
2024/04/13 09:31:09;;;;;;;0.80;0.80;;;;;;;11.47;69.47;100966.59;5418370;26;20260;-72
2024/04/13 09:33:35;;;;;;;3.00;1.50;;;;;;;11.53;69.70;100955.09;5419068;26;20307;-73
2024/04/13 09:36:03;;;;;;;1.27;1.07;;;;;;;11.62;69.57;100960.13;5418928;26;20293;-73
2024/04/13 09:38:29;;;;;;;0.80;0.80;;;;;;;11.68;69.55;100953.88;5414628;26;20221;-73
2024/04/13 09:41:04;;;;;;;0.80;0.80;;;;;;;11.70;69.52;100946.84;5418967;26;20307;-72
2024/04/13 09:43:30;;;;;;;1.63;0.67;;;;;;;11.82;69.57;100951.78;5413190;26;20216;-72
2024/04/13 09:46:00;;;;;;;1.17;0.60;;;;;;;11.91;69.08;100937.56;5418172;26;20334;-72
2024/04/13 09:48:26;;;;;;;1.93;0.83;;;;;;;11.97;69.44;100940.03;5418305;26;20219;-71
2024/04/13 09:50:54;;;;;;;1.47;0.70;;;;;;;12.07;68.96;100936.28;5418632;26;20575;-72
2024/04/13 09:53:21;;;;;;;0.53;0.53;;;;;;;12.13;68.80;100933.50;5418557;26;20226;-72
2024/04/13 09:55:50;;;;;;;1.77;0.80;;;;;;;12.20;69.01;100940.28;5418245;26;20660;-72
2024/04/13 09:58:18;;;;;;;2.07;0.90;;;;;;;12.27;68.46;100925.28;5418364;26;20229;-70
2024/04/13 10:00:49;;;;;;;1.30;0.80;;;;;;;12.31;68.33;100931.31;5418267;26;20291;-71
2024/04/13 10:03:16;;;;;;;1.77;0.80;;;;;;;12.35;68.23;100931.19;5418386;26;20217;-71
2024/04/13 10:05:46;;;;;;;1.33;0.80;;;;;;;12.42;67.48;100924.00;5418140;26;20292;-71
2024/04/13 10:08:13;;;;;;;1.07;0.80;;;;;;;12.47;67.92;100922.13;5412663;26;20272;-72
2024/04/13 10:10:44;;;;;;;2.20;0.83;;;;;;;12.44;67.21;100909.94;5418348;26;20328;-71
2024/04/13 10:13:15;;;;;;;2.13;0.80;;;;;;;12.56;67.62;100918.38;5417870;26;20233;-71
2024/04/13 10:15:47;;;;;;;0.67;0.67;;;;;;;12.57;67.23;100907.81;5414731;26;20219;-71
2024/04/13 10:18:14;;;;;;;1.33;0.70;;;;;;;12.63;67.50;100910.28;5415538;26;20312;-70
2024/04/13 10:20:43;;;;;;;1.77;0.60;;;;;;;12.65;67.43;100924.19;5417842;26;20222;-70
2024/04/13 10:23:10;;;;;;;0.77;0.77;;;;;;;12.65;66.95;100924.19;5417667;26;20291;-71
2024/04/13 10:25:39;;;;;;;1.63;0.97;;;;;;;12.70;67.53;100927.56;5417878;26;20270;-71
2024/04/13 10:28:07;;;;;;;1.47;0.90;;;;;;;12.69;66.88;100920.59;5418153;26;20348;-71
2024/04/13 10:30:49;;;;;;;3.40;0.93;;;;;;;12.74;67.24;100917.81;5418078;26;20260;-76
2024/04/13 10:33:20;;;;;;;1.00;0.90;;;;;;;12.73;66.98;100922.22;5418023;26;20216;-76
2024/04/13 10:35:59;;;;;;;2.00;0.90;;;;;;;12.73;67.08;100906.47;5417710;26;20320;-76
2024/04/13 10:38:27;;;;;;;4.07;1.53;;;;;;;12.76;67.13;100913.41;5417341;26;20821;-76
2024/04/13 10:40:56;;;;;;;1.93;1.03;;;;;;;12.77;67.75;100906.38;5417104;26;20279;-76
2024/04/13 10:43:24;;;;;;;1.10;1.00;;;;;;;12.78;67.28;100908.13;5416987;26;20438;-76
2024/04/13 10:45:56;;;;;;;0.87;0.87;;;;;;;12.78;67.68;100905.50;5417349;26;20235;-76
2024/04/13 10:48:23;;;;;;;1.57;0.80;;;;;;;12.77;68.14;100911.63;5417673;26;20279;-76
2024/04/13 10:50:55;;;;;;;1.03;0.90;;;;;;;12.76;67.67;100899.41;5418061;26;20269;-69
2024/04/13 10:53:23;;;;;;;2.50;0.90;;;;;;;12.78;68.34;100881.84;5417490;26;20704;-69
2024/04/13 10:55:52;;;;;;;1.57;1.00;;;;;;;12.77;68.36;100891.47;5417710;26;20261;-69
2024/04/13 10:58:19;;;;;;;1.27;0.80;;;;;;;12.79;68.33;100880.94;5417309;26;20229;-69
2024/04/13 11:00:49;;;;;;;1.20;1.10;;;;;;;12.79;68.96;100894.06;5417499;26;20279;-70
2024/04/13 11:03:20;;;;;;;2.23;1.20;;;;;;;12.80;68.46;100890.53;5417196;26;20223;-70
2024/04/13 11:05:46;;;;;;;0.97;0.87;;;;;;;12.78;69.04;100894.97;5414546;26;20218;-70
2024/04/13 11:08:15;;;;;;;2.27;1.40;;;;;;;12.79;69.02;100883.56;5417279;26;20240;-69
2024/04/13 11:10:42;;;;;;;1.23;0.90;;;;;;;12.71;69.02;100884.63;5417554;26;20263;-70
2024/04/13 11:13:11;;;;;;;1.00;0.90;;;;;;;12.79;69.01;100889.66;5417343;26;20255;-70
2024/04/13 11:15:36;;;;;;;2.27;1.00;;;;;;;12.78;68.43;100876.59;5417441;26;20320;-70
2024/04/13 11:18:05;;;;;;;1.37;1.10;;;;;;;12.78;68.43;100874.84;5417066;26;20228;-70
2024/04/13 11:20:39;;;;;;;1.97;0.90;;;;;;;12.79;68.85;100870.44;5417290;26;20314;-69
2024/04/13 11:23:06;;;;;;;2.43;1.20;;;;;;;12.78;68.60;100866.09;5415425;26;20343;-69
2024/04/13 11:25:31;;;;;;;1.60;1.00;;;;;;;12.75;68.31;100856.56;5417025;26;20268;-69
2024/04/13 11:28:00;;;;;;;1.43;1.10;;;;;;;12.73;68.40;100848.72;5417263;26;20223;-70
2024/04/13 11:30:27;;;;;;;1.50;1.40;;;;;;;12.71;68.37;100840.00;5417264;26;20726;-70
2024/04/13 11:32:55;;;;;;;1.30;1.17;;;;;;;12.72;68.60;100847.00;5416960;26;20239;-70